createdAt,value
2023-03-29T00:02:13.325Z,52.49
2023-03-29T00:05:18.687Z,51.93
2023-03-29T00:08:22.544Z,52.14
2023-03-29T00:11:27.381Z,51.15
2023-03-29T00:14:31.193Z,51.23
2023-03-29T00:17:34.650Z,50.79
2023-03-29T00:20:38.144Z,51.17
2023-03-29T00:23:41.612Z,51.67
2023-03-29T00:26:48.979Z,53.37
2023-03-29T00:29:52.056Z,52.34
2023-03-29T00:32:55.137Z,50.80
2023-03-29T00:35:58.663Z,51.42
2023-03-29T00:39:01.878Z,53.36
2023-03-29T00:42:05.063Z,54.58
2023-03-29T00:45:21.811Z,54.52
2023-03-29T00:48:30.131Z,54.69
2023-03-29T00:51:37.458Z,54.35
2023-03-29T00:54:46.266Z,55.61
2023-03-29T00:57:52.312Z,54.99
2023-03-29T01:01:08.780Z,56.36
2023-03-29T01:04:24.139Z,55.03
2023-03-29T01:07:58.292Z,57.74
2023-03-29T01:11:12.548Z,56.06
2023-03-29T01:14:34.048Z,54.25
2023-03-29T01:17:38.907Z,56.17
2023-03-29T01:21:03.547Z,55.81
2023-03-29T01:24:10.952Z,54.38
2023-03-29T01:27:22.884Z,57.10
2023-03-29T01:30:37.477Z,56.71
2023-03-29T01:33:45.426Z,55.54
2023-03-29T01:36:51.394Z,54.67
2023-03-29T01:39:54.595Z,57.57
2023-03-29T01:42:57.540Z,59.49
2023-03-29T01:46:11.634Z,59.35
2023-03-29T01:49:25.811Z,60.10
2023-03-29T01:52:36.210Z,59.30
2023-03-29T01:55:43.064Z,60.24
2023-03-29T01:58:51.338Z,60.48
2023-03-29T02:02:00.083Z,59.78
2023-03-29T02:05:05.241Z,59.88
2023-03-29T02:08:12.167Z,59.62
2023-03-29T02:11:15.748Z,60.76
2023-03-29T02:14:19.480Z,60.03
2023-03-29T02:17:24.717Z,60.55
2023-03-29T02:20:34.131Z,59.69
2023-03-29T02:23:45.602Z,60.39
2023-03-29T02:26:49.771Z,60.97
2023-03-29T02:29:53.449Z,61.97
2023-03-29T02:33:07.038Z,60.14
2023-03-29T02:36:19.914Z,60.77
2023-03-29T02:39:25.635Z,60.45
2023-03-29T02:42:29.994Z,60.35
2023-03-29T02:45:35.826Z,61.14
2023-03-29T02:48:39.816Z,61.64
2023-03-29T02:51:44.838Z,61.45
2023-03-29T02:54:51.443Z,60.21
2023-03-29T02:57:54.497Z,60.70
2023-03-29T03:01:01.630Z,59.63
2023-03-29T03:04:04.883Z,60.79
2023-03-29T03:07:08.381Z,59.27
2023-03-29T03:10:11.533Z,60.27
2023-03-29T03:13:14.749Z,59.14
2023-03-29T03:16:18.224Z,60.80
2023-03-29T03:19:21.754Z,59.73
2023-03-29T03:22:26.646Z,60.37
2023-03-29T03:25:30.259Z,61.73
2023-03-29T03:28:33.722Z,60.71
2023-03-29T03:31:41.542Z,61.04
2023-03-29T03:35:05.863Z,59.83
2023-03-29T03:38:09.194Z,60.08
2023-03-29T03:41:12.583Z,58.97
2023-03-29T03:44:15.875Z,59.81
2023-03-29T03:47:19.464Z,58.75
2023-03-29T03:50:24.591Z,58.54
2023-03-29T03:53:28.724Z,58.12
2023-03-29T03:56:50.084Z,57.97
2023-03-29T04:00:00.200Z,58.36
2023-03-29T04:03:17.260Z,56.39
2023-03-29T04:06:20.943Z,57.20
2023-03-29T04:09:43.430Z,57.24
2023-03-29T04:13:07.341Z,57.17
2023-03-29T04:16:20.378Z,56.90
2023-03-29T04:19:24.402Z,57.81
2023-03-29T04:22:28.982Z,57.20
2023-03-29T04:25:32.634Z,57.55
2023-03-29T04:28:54.695Z,57.63
2023-03-29T04:32:07.023Z,57.52
2023-03-29T04:35:25.991Z,57.90
2023-03-29T04:38:29.259Z,58.45
2023-03-29T04:41:32.825Z,56.23
2023-03-29T04:44:43.841Z,56.18
2023-03-29T04:47:49.717Z,56.23
2023-03-29T04:50:54.948Z,55.31
2023-03-29T04:53:58.308Z,55.90
2023-03-29T04:57:04.125Z,57.76
2023-03-29T05:00:31.685Z,56.27
2023-03-29T05:04:14.162Z,55.36
2023-03-29T05:07:33.821Z,56.22
2023-03-29T05:10:37.501Z,55.53
2023-03-29T05:13:41.327Z,57.06
2023-03-29T05:16:44.834Z,56.10
2023-03-29T05:19:48.143Z,58.20
2023-03-29T05:22:52.880Z,57.92
2023-03-29T05:26:15.591Z,57.84
2023-03-29T05:29:24.692Z,58.71
2023-03-29T05:32:38.140Z,60.06
2023-03-29T05:35:43.898Z,59.08
2023-03-29T05:38:47.623Z,57.32
2023-03-29T05:41:51.583Z,57.83
2023-03-29T05:45:05.054Z,57.70
2023-03-29T05:48:08.986Z,55.40
2023-03-29T05:51:15.161Z,53.55
2023-03-29T05:54:18.624Z,50.64
2023-03-29T05:57:22.688Z,48.02
2023-03-29T06:00:26.863Z,48.67
2023-03-29T06:03:42.813Z,49.14
2023-03-29T06:06:46.738Z,50.59
2023-03-29T06:09:50.429Z,50.26
2023-03-29T06:12:55.842Z,49.93
2023-03-29T06:16:02.061Z,50.38
2023-03-29T06:19:07.043Z,51.54
2023-03-29T06:22:14.694Z,50.02
2023-03-29T06:25:19.937Z,51.55
2023-03-29T06:28:27.841Z,49.87
2023-03-29T06:31:33.989Z,50.14
2023-03-29T06:34:38.640Z,50.59
2023-03-29T06:37:59.257Z,50.44
2023-03-29T06:41:27.797Z,53.12
2023-03-29T06:44:43.383Z,53.18
2023-03-29T06:47:58.161Z,51.65
2023-03-29T06:51:01.665Z,50.67
2023-03-29T06:54:07.745Z,51.52
2023-03-29T06:57:13.425Z,53.38
2023-03-29T07:00:28.083Z,50.47
2023-03-29T07:03:50.157Z,51.50
2023-03-29T07:07:02.011Z,50.37
2023-03-29T07:10:08.152Z,49.18
2023-03-29T07:13:15.822Z,48.38
2023-03-29T07:16:20.356Z,47.67
2023-03-29T07:19:45.362Z,48.38
2023-03-29T07:23:12.069Z,48.22
2023-03-29T07:26:28.611Z,46.92
2023-03-29T07:29:33.116Z,46.43
2023-03-29T07:32:39.215Z,47.15
2023-03-29T07:36:01.041Z,48.22
2023-03-29T07:39:09.331Z,47.91
2023-03-29T07:42:15.446Z,47.13
2023-03-29T07:45:26.529Z,45.76
2023-03-29T07:48:44.582Z,46.59
2023-03-29T07:51:51.846Z,46.60
2023-03-29T07:54:55.893Z,47.29
2023-03-29T07:58:18.344Z,41.36
2023-03-29T08:01:22.095Z,42.68
2023-03-29T08:04:49.233Z,40.75
2023-03-29T08:07:53.919Z,43.09
2023-03-29T08:11:20.939Z,45.18
2023-03-29T08:14:38.817Z,44.98
2023-03-29T08:17:51.204Z,44.29
2023-03-29T08:20:55.411Z,45.79
2023-03-29T08:23:59.077Z,43.12
2023-03-29T08:27:22.963Z,46.26
2023-03-29T08:30:26.478Z,43.68
2023-03-29T08:33:30.323Z,37.32
2023-03-29T08:36:55.760Z,40.85
2023-03-29T08:40:22.513Z,45.19
2023-03-29T08:43:50.369Z,42.88
2023-03-29T08:47:16.838Z,43.48
2023-03-29T08:50:32.781Z,46.90
2023-03-29T08:53:52.723Z,43.83
2023-03-29T08:57:15.673Z,45.77
2023-03-29T09:00:31.559Z,45.91
2023-03-29T09:03:37.744Z,45.13
2023-03-29T09:06:47.796Z,45.48
2023-03-29T09:09:58.937Z,47.22
2023-03-29T09:13:23.384Z,46.58
2023-03-29T09:16:26.730Z,45.63
2023-03-29T09:19:30.626Z,44.69
2023-03-29T09:22:40.670Z,43.20
2023-03-29T09:25:54.240Z,42.59
2023-03-29T09:29:43.261Z,42.68
2023-03-29T09:33:00.607Z,41.75
2023-03-29T09:36:29.007Z,43.87
2023-03-29T09:39:33.105Z,41.91
2023-03-29T09:42:51.666Z,40.27
2023-03-29T09:46:00.921Z,39.45
2023-03-29T09:49:11.131Z,39.82
2023-03-29T09:52:17.339Z,40.21
2023-03-29T09:55:34.091Z,41.85
2023-03-29T09:58:51.531Z,39.43
2023-03-29T10:02:06.833Z,39.05
2023-03-29T10:05:16.268Z,37.35
2023-03-29T10:08:27.794Z,36.55
2023-03-29T10:11:37.137Z,37.89
2023-03-29T10:14:49.142Z,38.59
2023-03-29T10:18:07.174Z,36.98
2023-03-29T10:21:24.314Z,39.64
2023-03-29T10:24:28.519Z,39.21
2023-03-29T10:27:35.950Z,39.53
2023-03-29T10:30:40.344Z,40.49
2023-03-29T10:33:47.013Z,38.86
2023-03-29T10:37:11.511Z,38.40
2023-03-29T10:40:26.467Z,38.68
2023-03-29T10:43:43.446Z,35.69
2023-03-29T10:46:47.244Z,36.10
2023-03-29T10:49:57.075Z,35.65
2023-03-29T10:53:03.301Z,36.58
2023-03-29T10:56:07.984Z,36.89
2023-03-29T10:59:31.556Z,37.96
2023-03-29T11:02:56.299Z,35.97
2023-03-29T11:06:02.328Z,34.86
2023-03-29T11:09:41.000Z,36.31
2023-03-29T11:13:06.723Z,32.76
2023-03-29T11:16:18.818Z,33.60
2023-03-29T11:19:28.268Z,32.56
2023-03-29T11:22:41.695Z,32.99
2023-03-29T11:26:01.389Z,31.99
2023-03-29T11:29:16.968Z,34.36
2023-03-29T11:32:38.893Z,35.95
2023-03-29T11:36:13.745Z,37.07
2023-03-29T11:39:30.511Z,35.90
2023-03-29T11:42:39.192Z,35.51
2023-03-29T11:45:57.209Z,34.23
2023-03-29T11:49:14.174Z,35.12
2023-03-29T11:52:17.879Z,38.65
2023-03-29T11:55:35.924Z,34.71
2023-03-29T11:58:43.261Z,34.34
2023-03-29T12:02:28.036Z,34.87
2023-03-29T12:05:43.236Z,33.68
2023-03-29T12:09:00.640Z,34.73
2023-03-29T12:12:19.379Z,35.79
2023-03-29T12:15:31.858Z,36.38
2023-03-29T12:18:45.667Z,35.82
2023-03-29T12:21:49.867Z,37.21
2023-03-29T12:24:57.680Z,35.77
2023-03-29T12:28:20.159Z,35.01
2023-03-29T12:32:05.648Z,36.82
2023-03-29T12:35:30.455Z,37.16
2023-03-29T12:38:55.461Z,39.61
2023-03-29T12:42:19.395Z,37.84
2023-03-29T12:45:48.774Z,38.86
2023-03-29T12:48:57.450Z,38.65
2023-03-29T12:52:03.213Z,40.51
2023-03-29T12:55:42.504Z,38.46
2023-03-29T12:59:25.906Z,37.98
2023-03-29T13:02:36.388Z,36.52
2023-03-29T13:05:40.009Z,35.78
2023-03-29T13:08:46.401Z,36.53
2023-03-29T13:11:54.679Z,35.97
2023-03-29T13:15:04.154Z,35.97
2023-03-29T13:18:47.944Z,36.73
2023-03-29T13:22:10.462Z,33.64
2023-03-29T13:25:29.064Z,35.80
2023-03-29T13:28:53.400Z,35.33
2023-03-29T13:32:18.550Z,36.35
2023-03-29T13:36:06.734Z,35.95
2023-03-29T13:39:37.135Z,35.38
2023-03-29T13:42:42.080Z,37.35
2023-03-29T13:45:52.241Z,36.39
2023-03-29T13:49:20.772Z,37.23
2023-03-29T13:52:33.480Z,36.30
2023-03-29T13:55:45.650Z,36.60
2023-03-29T13:58:58.132Z,36.75
2023-03-29T14:02:04.873Z,37.20
2023-03-29T14:05:13.138Z,40.82
2023-03-29T14:08:39.404Z,38.86
2023-03-29T14:11:46.716Z,38.55
2023-03-29T14:14:58.966Z,39.62
2023-03-29T14:18:05.486Z,38.35
2023-03-29T14:21:11.641Z,37.87
2023-03-29T14:24:22.470Z,38.93
2023-03-29T14:27:31.909Z,40.89
2023-03-29T14:30:35.326Z,41.42
2023-03-29T14:33:38.668Z,42.15
2023-03-29T14:36:45.010Z,42.28
2023-03-29T14:39:49.575Z,43.93
2023-03-29T14:42:53.388Z,42.85
2023-03-29T14:45:57.533Z,41.99
2023-03-29T14:49:02.372Z,42.11
2023-03-29T14:52:06.777Z,41.25
2023-03-29T14:55:11.649Z,41.38
2023-03-29T14:58:27.511Z,40.96
2023-03-29T15:01:31.415Z,40.22
2023-03-29T15:04:36.410Z,41.81
2023-03-29T15:07:43.223Z,42.30
2023-03-29T15:10:46.796Z,44.10
2023-03-29T15:13:56.626Z,42.28
2023-03-29T15:17:04.868Z,42.96
2023-03-29T15:20:13.261Z,43.60
2023-03-29T15:23:16.591Z,44.18
2023-03-29T15:26:33.650Z,43.81
2023-03-29T15:29:43.362Z,44.30
2023-03-29T15:32:46.816Z,45.37
2023-03-29T15:35:52.566Z,45.71
2023-03-29T15:38:55.959Z,45.74
2023-03-29T15:41:59.401Z,43.25
2023-03-29T15:45:06.435Z,46.50
2023-03-29T15:48:16.369Z,45.23
2023-03-29T15:51:19.919Z,45.79
2023-03-29T15:54:24.950Z,46.34
2023-03-29T15:57:28.911Z,45.54
2023-03-29T16:00:33.035Z,46.39
2023-03-29T16:03:36.189Z,46.96
2023-03-29T16:06:39.252Z,49.35
2023-03-29T16:09:43.144Z,47.30
2023-03-29T16:16:03.926Z,53.19
2023-03-29T16:19:07.355Z,54.84
2023-03-29T16:22:10.561Z,54.90
2023-03-29T16:25:19.272Z,52.15
2023-03-29T16:28:22.525Z,50.07
2023-03-29T16:31:27.150Z,55.06
2023-03-29T16:34:30.473Z,54.50
2023-03-29T16:37:33.608Z,54.77
2023-03-29T16:40:37.222Z,52.62
2023-03-29T16:43:40.615Z,51.06
2023-03-29T16:46:44.066Z,52.53
2023-03-29T16:49:48.708Z,51.98
2023-03-29T16:52:52.769Z,55.12
2023-03-29T16:55:58.952Z,55.24
2023-03-29T16:59:02.054Z,55.36
2023-03-29T17:02:05.431Z,55.17
2023-03-29T17:05:09.410Z,47.84
2023-03-29T17:08:12.675Z,47.57
2023-03-29T17:11:20.642Z,48.94
2023-03-29T17:17:42.447Z,49.43
2023-03-29T17:20:46.084Z,50.24
2023-03-29T17:23:49.438Z,45.48
2023-03-29T17:26:52.498Z,46.99
2023-03-29T17:29:55.957Z,49.11
2023-03-29T17:32:59.088Z,48.74
2023-03-29T17:36:02.989Z,48.75
2023-03-29T17:39:07.198Z,51.53
2023-03-29T17:42:10.611Z,50.75
2023-03-29T17:45:14.910Z,50.86
2023-03-29T17:48:18.943Z,49.29
2023-03-29T17:51:23.724Z,50.85
2023-03-29T17:54:27.107Z,52.34
2023-03-29T17:57:31.250Z,54.40
2023-03-29T18:00:34.840Z,53.47
2023-03-29T18:03:38.215Z,54.90
2023-03-29T18:06:42.834Z,54.57
2023-03-29T18:09:46.386Z,55.09
2023-03-29T18:12:49.649Z,56.36
2023-03-29T18:15:56.890Z,55.44
2023-03-29T18:19:00.021Z,56.63
2023-03-29T18:22:03.490Z,56.82
2023-03-29T18:25:07.645Z,57.89
2023-03-29T18:28:11.413Z,57.08
2023-03-29T18:31:15.207Z,58.44
2023-03-29T18:34:18.729Z,58.55
2023-03-29T18:37:22.090Z,59.88
2023-03-29T18:40:25.316Z,60.67
2023-03-29T18:43:29.641Z,59.91
2023-03-29T18:46:33.424Z,59.15
2023-03-29T18:49:36.948Z,59.78
2023-03-29T18:52:40.563Z,61.71
2023-03-29T18:55:44.303Z,60.72
2023-03-29T18:58:48.147Z,61.62
2023-03-29T19:01:51.740Z,63.35
2023-03-29T19:04:55.408Z,61.66
2023-03-29T19:07:59.479Z,62.68
2023-03-29T19:11:05.669Z,61.95
2023-03-29T19:14:10.667Z,61.66
2023-03-29T19:17:14.061Z,62.04
2023-03-29T19:20:17.500Z,63.02
2023-03-29T19:23:22.118Z,64.13
2023-03-29T19:26:26.584Z,65.01
2023-03-29T19:29:30.318Z,64.15
2023-03-29T19:32:34.055Z,63.23
2023-03-29T19:35:37.659Z,63.44
2023-03-29T19:38:41.712Z,62.77
2023-03-29T19:41:45.094Z,63.08
2023-03-29T19:44:48.213Z,63.46
2023-03-29T19:47:57.336Z,64.46
2023-03-29T19:51:04.581Z,64.68
2023-03-29T19:54:08.275Z,64.25
2023-03-29T19:57:11.605Z,63.63
2023-03-29T20:00:15.185Z,62.88
2023-03-29T20:03:19.643Z,64.69
2023-03-29T20:06:23.300Z,64.21
2023-03-29T20:09:26.592Z,64.23
2023-03-29T20:12:29.858Z,65.33
2023-03-29T20:15:32.966Z,63.76
2023-03-29T20:18:38.358Z,63.24
2023-03-29T20:21:42.079Z,64.63
2023-03-29T20:24:45.666Z,62.92
2023-03-29T20:27:49.563Z,64.02
2023-03-29T20:30:53.797Z,63.35
2023-03-29T20:33:57.618Z,62.21
2023-03-29T20:37:02.275Z,62.88
2023-03-29T20:40:08.301Z,62.78
2023-03-29T20:43:13.712Z,66.90
2023-03-29T20:46:23.032Z,64.74
2023-03-29T20:49:26.723Z,63.25
2023-03-29T20:52:30.877Z,62.66
2023-03-29T20:55:38.250Z,63.26
2023-03-29T20:58:42.313Z,63.88
2023-03-29T21:01:47.177Z,63.14
2023-03-29T21:04:52.041Z,63.97
2023-03-29T21:07:55.203Z,64.20
2023-03-29T21:10:58.172Z,66.44
2023-03-29T21:14:01.525Z,65.20
2023-03-29T21:17:04.802Z,66.03
2023-03-29T21:20:11.203Z,64.30
2023-03-29T21:23:14.376Z,64.66
2023-03-29T21:26:17.672Z,64.56
2023-03-29T21:29:20.714Z,65.20
2023-03-29T21:32:23.647Z,65.05
2023-03-29T21:35:26.752Z,67.84
2023-03-29T21:38:30.060Z,65.13
2023-03-29T21:41:33.059Z,65.08
2023-03-29T21:44:36.244Z,66.14
2023-03-29T21:47:39.871Z,65.52
2023-03-29T21:50:42.930Z,65.21
2023-03-29T21:53:46.498Z,65.25
2023-03-29T21:56:49.784Z,64.33
2023-03-29T21:59:53.063Z,64.94
2023-03-29T22:02:57.085Z,64.83
2023-03-29T22:06:03.007Z,66.79
2023-03-29T22:09:06.696Z,67.13
2023-03-29T22:12:10.566Z,65.27
2023-03-29T22:15:13.987Z,66.23
2023-03-29T22:18:17.007Z,66.21
2023-03-29T22:21:23.612Z,66.56
2023-03-29T22:24:30.549Z,65.30
2023-03-29T22:27:33.637Z,65.69
2023-03-29T22:30:37.030Z,65.37
2023-03-29T22:33:40.615Z,65.39
2023-03-29T22:36:43.756Z,66.34
2023-03-29T22:39:46.862Z,66.92
2023-03-29T22:42:50.034Z,66.91
2023-03-29T22:45:53.263Z,66.66
2023-03-29T22:48:56.617Z,67.33
2023-03-29T22:52:01.491Z,67.14
2023-03-29T22:55:05.074Z,67.15
2023-03-29T22:58:08.090Z,67.11
2023-03-29T23:01:11.471Z,66.55
2023-03-29T23:04:14.862Z,66.90
2023-03-29T23:07:18.054Z,66.74
2023-03-29T23:10:21.742Z,66.27
2023-03-29T23:13:28.777Z,66.81
2023-03-29T23:16:32.318Z,67.52
2023-03-29T23:19:36.415Z,68.04
2023-03-29T23:22:39.849Z,69.05
2023-03-29T23:25:45.747Z,69.96
2023-03-29T23:28:51.539Z,69.10
2023-03-29T23:31:56.990Z,69.28
2023-03-29T23:35:00.568Z,69.26
2023-03-29T23:38:05.567Z,69.02
2023-03-29T23:41:10.936Z,68.55
2023-03-29T23:44:14.299Z,68.55
2023-03-29T23:47:17.564Z,68.17
2023-03-29T23:50:22.774Z,68.89
2023-03-29T23:53:29.004Z,68.21
2023-03-29T23:56:32.783Z,67.81
2023-03-29T23:59:37.991Z,67.36
